createdAt,value
2022-08-21T00:00:34.273Z,20.97
2022-08-21T00:03:04.522Z,17.90
2022-08-21T00:05:33.427Z,18.23
2022-08-21T00:08:01.342Z,19.87
2022-08-21T00:10:28.938Z,16.47
2022-08-21T00:12:58.350Z,15.87
2022-08-21T00:15:29.986Z,10.93
2022-08-21T00:17:58.001Z,13.23
2022-08-21T00:20:25.869Z,13.77
2022-08-21T00:22:53.609Z,18.23
2022-08-21T00:25:24.328Z,28.00
2022-08-21T00:27:54.027Z,16.73
2022-08-21T00:30:24.784Z,19.60
2022-08-21T00:32:53.365Z,16.53
2022-08-21T00:35:23.798Z,15.03
2022-08-21T00:37:51.457Z,17.10
2022-08-21T00:40:21.384Z,11.10
2022-08-21T00:42:53.521Z,15.73
2022-08-21T00:45:23.907Z,13.67
2022-08-21T00:47:51.836Z,13.33
2022-08-21T00:50:22.411Z,17.67
2022-08-21T00:52:52.198Z,17.13
2022-08-21T00:55:23.371Z,17.23
2022-08-21T00:57:54.070Z,17.20
2022-08-21T01:00:28.879Z,18.10
2022-08-21T01:02:56.958Z,15.93
2022-08-21T01:05:24.806Z,17.60
2022-08-21T01:07:52.801Z,18.63
2022-08-21T01:10:24.377Z,17.83
2022-08-21T01:12:52.795Z,20.37
2022-08-21T01:15:24.933Z,17.67
2022-08-21T01:17:54.723Z,17.70
2022-08-21T01:20:22.386Z,16.17
2022-08-21T01:23:01.710Z,16.47
2022-08-21T01:25:29.446Z,16.90
2022-08-21T01:27:57.301Z,19.10
2022-08-21T01:30:27.598Z,18.43
2022-08-21T01:32:55.400Z,16.37
2022-08-21T01:35:23.460Z,20.03
2022-08-21T01:37:51.196Z,19.53
2022-08-21T01:40:20.792Z,16.50
2022-08-21T01:42:49.481Z,17.60
2022-08-21T01:45:17.908Z,16.77
2022-08-21T01:47:46.479Z,17.70
2022-08-21T01:50:17.702Z,16.77
2022-08-21T01:52:45.457Z,15.93
2022-08-21T01:55:14.730Z,13.27
2022-08-21T01:57:44.099Z,19.73
2022-08-21T02:00:14.273Z,13.93
2022-08-21T02:02:42.856Z,20.13
2022-08-21T02:05:12.091Z,16.07
2022-08-21T02:07:41.111Z,14.13
2022-08-21T02:10:11.028Z,17.23
2022-08-21T02:12:39.817Z,14.57
2022-08-21T02:15:11.189Z,18.67
2022-08-21T02:17:40.686Z,19.20
2022-08-21T02:20:09.806Z,14.00
2022-08-21T02:22:37.451Z,20.50
2022-08-21T02:25:06.105Z,13.23
2022-08-21T02:27:40.146Z,16.27
2022-08-21T02:30:11.274Z,15.57
2022-08-21T02:32:38.982Z,18.77
2022-08-21T02:35:07.892Z,19.87
2022-08-21T02:37:35.833Z,13.93
2022-08-21T02:40:03.922Z,17.03
2022-08-21T02:42:31.594Z,19.27
2022-08-21T02:44:59.252Z,13.03
2022-08-21T02:47:28.306Z,19.17
2022-08-21T02:49:55.994Z,22.30
2022-08-21T02:52:25.063Z,18.47
2022-08-21T02:54:52.842Z,18.13
2022-08-21T02:57:20.641Z,17.00
2022-08-21T02:59:48.305Z,18.10
2022-08-21T03:02:15.979Z,16.20
2022-08-21T03:04:46.808Z,16.60
2022-08-21T03:07:14.691Z,15.83
2022-08-21T03:09:55.276Z,17.33
2022-08-21T03:12:24.184Z,15.23
2022-08-21T03:14:51.854Z,16.70
2022-08-21T03:17:19.535Z,17.43
2022-08-21T03:19:59.227Z,14.93
2022-08-21T03:22:27.556Z,18.73
2022-08-21T03:24:58.222Z,14.67
2022-08-21T03:27:27.521Z,19.17
2022-08-21T03:29:57.544Z,16.37
2022-08-21T03:32:25.278Z,19.80
2022-08-21T03:34:52.938Z,18.60
2022-08-21T03:37:21.910Z,15.77
2022-08-21T03:39:49.599Z,13.33
2022-08-21T03:42:17.275Z,14.83
2022-08-21T03:44:45.433Z,16.87
2022-08-21T03:47:13.085Z,15.07
2022-08-21T03:49:40.794Z,18.30
2022-08-21T03:52:08.573Z,14.37
2022-08-21T03:54:37.584Z,15.83
2022-08-21T03:57:05.608Z,17.47
2022-08-21T03:59:33.384Z,16.47
2022-08-21T04:02:04.460Z,21.47
2022-08-21T04:04:32.888Z,19.63
2022-08-21T04:07:00.690Z,14.07
2022-08-21T04:09:29.257Z,21.33
2022-08-21T04:11:58.401Z,14.23
2022-08-21T04:14:26.171Z,17.40
2022-08-21T04:16:53.781Z,23.07
2022-08-21T04:19:21.556Z,17.53
2022-08-21T04:21:50.547Z,14.40
2022-08-21T04:24:20.382Z,16.87
2022-08-21T04:26:48.131Z,19.33
2022-08-21T04:29:17.467Z,16.77
2022-08-21T04:31:45.553Z,16.33
2022-08-21T04:34:13.366Z,14.37
2022-08-21T04:36:41.064Z,20.37
2022-08-21T04:39:10.170Z,17.63
2022-08-21T04:41:38.543Z,15.40
2022-08-21T04:44:07.913Z,20.67
2022-08-21T04:46:36.941Z,24.07
2022-08-21T04:49:04.698Z,22.23
2022-08-21T04:51:35.863Z,18.73
2022-08-21T04:54:09.440Z,16.70
2022-08-21T04:56:39.459Z,19.33
2022-08-21T04:59:09.170Z,19.90
2022-08-21T05:01:38.803Z,17.23
2022-08-21T05:04:08.145Z,15.80
2022-08-21T05:06:37.893Z,18.53
2022-08-21T05:09:06.582Z,16.17
2022-08-21T05:11:35.927Z,16.10
2022-08-21T05:14:03.663Z,18.63
2022-08-21T05:16:37.050Z,18.03
2022-08-21T05:19:07.356Z,18.00
2022-08-21T05:21:35.406Z,16.33
2022-08-21T05:24:03.228Z,22.43
2022-08-21T05:26:31.573Z,18.40
2022-08-21T05:28:59.879Z,17.70
2022-08-21T05:31:27.578Z,16.57
2022-08-21T05:33:55.978Z,19.70
2022-08-21T05:36:24.997Z,20.17
2022-08-21T05:38:53.051Z,16.40
2022-08-21T05:41:21.147Z,19.70
2022-08-21T05:43:49.203Z,17.97
2022-08-21T05:46:17.206Z,15.10
2022-08-21T05:48:44.863Z,16.40
2022-08-21T05:51:16.059Z,14.37
2022-08-21T05:53:46.523Z,15.70
2022-08-21T05:56:15.098Z,15.17
2022-08-21T05:58:43.475Z,18.17
2022-08-21T06:01:12.077Z,17.27
2022-08-21T06:03:41.478Z,14.17
2022-08-21T06:06:09.634Z,15.07
2022-08-21T06:08:37.805Z,16.67
2022-08-21T06:11:07.720Z,16.83
2022-08-21T06:13:35.687Z,14.17
2022-08-21T06:16:05.098Z,15.07
2022-08-21T06:18:32.888Z,16.47
2022-08-21T06:21:00.936Z,14.37
2022-08-21T06:23:33.462Z,15.30
2022-08-21T06:26:01.766Z,15.50
2022-08-21T06:28:31.149Z,16.93
2022-08-21T06:30:58.860Z,12.20
2022-08-21T06:33:31.902Z,13.07
2022-08-21T06:36:00.936Z,18.20
2022-08-21T06:38:28.597Z,16.03
2022-08-21T06:40:56.606Z,15.90
2022-08-21T06:43:28.894Z,17.60
2022-08-21T06:46:09.377Z,14.30
2022-08-21T06:48:37.273Z,17.57
2022-08-21T06:51:05.009Z,13.00
2022-08-21T06:53:32.934Z,13.03
2022-08-21T06:56:00.897Z,10.90
2022-08-21T06:58:28.505Z,12.70
2022-08-21T07:01:00.775Z,12.03
2022-08-21T07:03:32.233Z,11.63
2022-08-21T07:06:00.125Z,11.93
2022-08-21T07:08:29.134Z,12.57
2022-08-21T07:10:58.721Z,9.97
2022-08-21T07:13:26.715Z,11.40
2022-08-21T07:15:54.361Z,11.40
2022-08-21T07:18:22.198Z,15.57
2022-08-21T07:20:51.635Z,11.43
2022-08-21T07:23:25.188Z,13.60
2022-08-21T07:25:52.923Z,10.90
2022-08-21T07:28:20.727Z,11.27
2022-08-21T07:30:52.845Z,11.00
2022-08-21T07:33:20.454Z,5.93
2022-08-21T07:35:48.158Z,7.93
2022-08-21T07:38:17.265Z,14.63
2022-08-21T07:40:44.905Z,4.60
2022-08-21T07:43:12.577Z,13.77
2022-08-21T07:45:40.454Z,7.50
2022-08-21T07:48:08.673Z,10.17
2022-08-21T07:50:36.459Z,9.90
2022-08-21T07:53:04.985Z,7.00
2022-08-21T07:55:33.978Z,7.63
2022-08-21T07:58:01.643Z,8.00
2022-08-21T08:00:31.741Z,8.17
2022-08-21T08:02:59.597Z,4.97
2022-08-21T08:05:30.100Z,4.77
2022-08-21T08:07:59.040Z,7.37
2022-08-21T08:10:28.146Z,8.27
2022-08-21T08:12:57.742Z,5.00
2022-08-21T08:15:27.858Z,5.13
2022-08-21T08:17:56.342Z,9.80
2022-08-21T08:20:26.090Z,9.13
2022-08-21T08:22:54.529Z,8.03
2022-08-21T08:25:24.285Z,3.73
2022-08-21T08:27:51.982Z,4.87
2022-08-21T08:30:22.598Z,5.07
2022-08-21T08:32:50.514Z,5.53
2022-08-21T08:35:18.214Z,6.70
2022-08-21T08:37:52.353Z,6.80
2022-08-21T08:40:22.823Z,4.67
2022-08-21T08:42:51.463Z,10.20
2022-08-21T08:45:24.833Z,6.97
2022-08-21T08:47:58.813Z,8.50
2022-08-21T08:50:30.739Z,4.60
2022-08-21T08:53:02.087Z,7.50
2022-08-21T08:55:36.491Z,9.37
2022-08-21T08:58:04.967Z,5.03
2022-08-21T09:00:34.319Z,2.53
2022-08-21T09:03:04.077Z,6.07
2022-08-21T09:05:38.684Z,6.37
2022-08-21T09:08:19.043Z,5.77
2022-08-21T09:10:55.422Z,3.20
2022-08-21T09:13:28.157Z,3.60
2022-08-21T09:16:04.175Z,5.67
2022-08-21T09:18:40.920Z,6.03
2022-08-21T09:21:17.311Z,4.00
2022-08-21T09:23:52.152Z,2.77
2022-08-21T09:26:21.432Z,3.37
2022-08-21T09:28:54.600Z,2.47
2022-08-21T09:31:27.599Z,4.20
2022-08-21T09:34:01.003Z,3.70
2022-08-21T09:36:35.892Z,5.20
2022-08-21T09:39:04.417Z,2.70
2022-08-21T09:41:35.620Z,3.90
2022-08-21T09:44:04.200Z,4.43
2022-08-21T09:46:33.403Z,6.47
2022-08-21T09:49:04.472Z,4.10
2022-08-21T09:51:36.635Z,3.17
2022-08-21T09:54:16.506Z,5.23
2022-08-21T09:57:12.414Z,4.93
2022-08-21T09:59:40.195Z,8.13
2022-08-21T10:02:24.830Z,3.07
2022-08-21T10:04:53.222Z,6.80
2022-08-21T10:07:23.604Z,5.38
2022-08-21T10:10:05.548Z,5.33
2022-08-21T10:12:43.197Z,5.30
2022-08-21T10:15:18.366Z,6.57
2022-08-21T10:17:54.739Z,4.05
2022-08-21T10:20:25.361Z,5.35
2022-08-21T10:23:04.681Z,3.22
2022-08-21T10:25:35.638Z,8.82
2022-08-21T10:28:13.420Z,5.20
2022-08-21T10:30:59.520Z,6.68
2022-08-21T10:33:38.182Z,5.90
2022-08-21T10:36:13.797Z,2.90
2022-08-21T10:39:23.283Z,6.10
2022-08-21T10:42:03.099Z,3.83
2022-08-21T10:44:38.860Z,13.18
2022-08-21T10:47:09.878Z,4.05
2022-08-21T10:49:42.560Z,6.23
2022-08-21T10:52:25.778Z,4.93
2022-08-21T10:54:56.931Z,5.53
2022-08-21T10:57:32.249Z,6.57
2022-08-21T11:00:06.634Z,4.43
2022-08-21T11:02:38.559Z,3.90
2022-08-21T11:05:10.627Z,3.90
2022-08-21T11:07:40.737Z,4.03
2022-08-21T11:10:14.609Z,5.67
2022-08-21T11:12:46.478Z,3.17
2022-08-21T11:15:29.536Z,4.63
2022-08-21T11:18:05.072Z,9.20
2022-08-21T11:20:42.476Z,5.63
2022-08-21T11:23:17.425Z,6.07
2022-08-21T11:25:49.802Z,5.63
2022-08-21T11:28:20.119Z,6.03
2022-08-21T11:30:56.690Z,5.68
2022-08-21T11:33:35.522Z,4.82
2022-08-21T11:36:13.018Z,4.35
2022-08-21T11:38:43.105Z,5.90
2022-08-21T11:41:19.814Z,5.57
2022-08-21T11:43:49.396Z,5.45
2022-08-21T11:46:25.466Z,2.33
2022-08-21T11:49:04.683Z,5.75
2022-08-21T11:51:36.416Z,6.35
2022-08-21T11:54:07.857Z,3.38
2022-08-21T11:56:38.114Z,3.55
2022-08-21T11:59:10.811Z,2.67
2022-08-21T12:01:42.456Z,4.25
2022-08-21T12:04:12.979Z,2.30
2022-08-21T12:06:43.546Z,3.88
2022-08-21T12:09:29.271Z,4.85
2022-08-21T12:12:04.227Z,3.22
2022-08-21T12:14:43.129Z,6.05
2022-08-21T12:17:20.432Z,4.70
2022-08-21T12:19:59.381Z,6.53
2022-08-21T12:22:41.835Z,6.03
2022-08-21T12:25:13.032Z,5.70
2022-08-21T12:27:48.203Z,3.05
2022-08-21T12:30:27.279Z,4.32
2022-08-21T12:33:00.281Z,2.53
2022-08-21T12:35:33.201Z,6.90
2022-08-21T12:38:10.211Z,3.13
2022-08-21T12:40:42.822Z,3.80
2022-08-21T12:43:17.003Z,4.72
2022-08-21T12:45:47.859Z,4.55
2022-08-21T12:48:20.768Z,3.63
2022-08-21T12:50:54.455Z,4.60
2022-08-21T12:53:29.227Z,4.95
2022-08-21T12:56:02.375Z,7.40
2022-08-21T12:58:30.878Z,2.05
2022-08-21T13:01:02.072Z,4.40
2022-08-21T13:03:29.887Z,3.60
2022-08-21T13:05:57.677Z,5.97
2022-08-21T13:08:28.566Z,4.33
2022-08-21T13:11:00.790Z,5.07
2022-08-21T13:13:44.612Z,3.83
2022-08-21T13:16:22.937Z,5.50
2022-08-21T13:18:59.585Z,7.57
2022-08-21T13:21:31.516Z,2.38
2022-08-21T13:24:39.131Z,2.97
2022-08-21T13:27:21.414Z,3.33
2022-08-21T13:29:53.415Z,2.47
2022-08-21T13:32:27.164Z,5.30
2022-08-21T13:34:55.174Z,2.88
2022-08-21T13:37:24.195Z,2.33
2022-08-21T13:39:54.530Z,5.28
2022-08-21T13:42:23.683Z,1.20
2022-08-21T13:44:54.452Z,1.93
2022-08-21T13:47:22.679Z,2.57
2022-08-21T13:49:54.774Z,3.30
2022-08-21T13:52:27.986Z,4.32
2022-08-21T13:54:59.106Z,3.85
2022-08-21T13:57:28.743Z,3.92
2022-08-21T14:00:13.635Z,6.15
2022-08-21T14:02:43.138Z,4.65
2022-08-21T14:05:18.289Z,1.20
2022-08-21T14:07:46.357Z,3.05
2022-08-21T14:10:18.758Z,4.22
2022-08-21T14:12:49.534Z,3.50
2022-08-21T14:15:19.792Z,1.80
2022-08-21T14:17:47.721Z,1.92
2022-08-21T14:20:29.717Z,1.80
2022-08-21T14:22:57.752Z,4.68
2022-08-21T14:25:32.794Z,5.53
2022-08-21T14:28:09.649Z,3.00
2022-08-21T14:30:40.450Z,1.83
2022-08-21T14:33:12.816Z,1.85
2022-08-21T14:35:41.493Z,4.97
2022-08-21T14:38:14.837Z,2.75
2022-08-21T14:40:44.497Z,4.27
2022-08-21T14:43:12.167Z,2.55
2022-08-21T14:45:41.593Z,2.75
2022-08-21T14:48:10.207Z,2.60
2022-08-21T14:50:38.282Z,2.45
2022-08-21T14:53:10.835Z,2.20
2022-08-21T14:55:53.898Z,3.90
2022-08-21T14:58:25.572Z,4.50
2022-08-21T15:00:54.572Z,3.05
2022-08-21T15:03:23.442Z,1.90
2022-08-21T15:05:51.147Z,2.25
2022-08-21T15:08:19.241Z,2.92
2022-08-21T15:11:08.657Z,3.03
2022-08-21T15:13:36.045Z,6.95
2022-08-21T15:16:04.225Z,3.17
2022-08-21T15:18:32.404Z,3.13
2022-08-21T15:21:00.242Z,5.83
2022-08-21T15:23:27.977Z,4.17
2022-08-21T15:25:58.362Z,3.63
2022-08-21T15:28:27.638Z,3.03
2022-08-21T15:31:01.634Z,3.70
2022-08-21T15:33:29.836Z,2.40
2022-08-21T15:35:57.754Z,4.00
2022-08-21T15:38:25.726Z,3.47
2022-08-21T15:40:53.879Z,5.10
2022-08-21T15:43:30.469Z,4.43
2022-08-21T15:46:01.617Z,2.80
2022-08-21T15:48:29.545Z,3.63
2022-08-21T15:50:57.523Z,3.67
2022-08-21T15:53:25.928Z,4.10
2022-08-21T15:55:53.560Z,2.73
2022-08-21T15:58:21.910Z,1.93
2022-08-21T16:00:49.589Z,1.90
2022-08-21T16:03:22.533Z,6.87
2022-08-21T16:05:53.233Z,2.00
2022-08-21T16:08:21.378Z,3.10
2022-08-21T16:10:49.544Z,3.93
2022-08-21T16:13:23.216Z,5.47
2022-08-21T16:15:51.128Z,1.70
2022-08-21T16:18:21.138Z,3.67
2022-08-21T16:20:48.808Z,2.27
2022-08-21T16:23:16.733Z,2.20
2022-08-21T16:25:44.631Z,5.53
2022-08-21T16:28:17.001Z,2.47
2022-08-21T16:30:46.630Z,3.13
2022-08-21T16:33:25.978Z,1.53
2022-08-21T16:35:53.857Z,2.70
2022-08-21T16:38:22.010Z,3.60
2022-08-21T16:40:49.698Z,2.23
2022-08-21T16:43:18.217Z,5.17
2022-08-21T16:45:45.991Z,3.10
2022-08-21T16:48:13.717Z,3.10
2022-08-21T16:50:42.777Z,4.23
2022-08-21T16:53:10.417Z,3.37
2022-08-21T16:55:39.412Z,2.23
2022-08-21T16:58:11.384Z,4.03
2022-08-21T17:00:39.309Z,4.07
2022-08-21T17:03:07.548Z,7.23
2022-08-21T17:05:35.262Z,2.07
2022-08-21T17:08:04.806Z,4.33
2022-08-21T17:10:32.657Z,4.13
2022-08-21T17:13:00.906Z,4.00
2022-08-21T17:15:32.816Z,1.87
2022-08-21T17:18:00.767Z,2.20
2022-08-21T17:20:28.845Z,2.50
2022-08-21T17:22:56.484Z,2.20
2022-08-21T17:25:25.873Z,3.20
2022-08-21T17:27:54.290Z,3.73
2022-08-21T17:30:22.654Z,4.57
2022-08-21T17:32:53.258Z,1.93
2022-08-21T17:35:21.667Z,2.10
2022-08-21T17:37:49.514Z,3.93
2022-08-21T17:40:17.982Z,6.23
2022-08-21T17:42:47.989Z,4.73
2022-08-21T17:45:18.494Z,4.13
2022-08-21T17:47:46.164Z,6.80
2022-08-21T17:50:14.919Z,4.70
2022-08-21T17:52:45.219Z,4.40
2022-08-21T17:55:13.620Z,6.17
2022-08-21T17:57:42.002Z,7.37
2022-08-21T18:00:15.359Z,2.13
2022-08-21T18:02:44.866Z,3.87
2022-08-21T18:05:13.960Z,5.10
2022-08-21T18:07:41.977Z,4.37
2022-08-21T18:10:12.203Z,4.47
2022-08-21T18:12:41.911Z,7.27
2022-08-21T18:15:12.636Z,7.57
2022-08-21T18:17:41.567Z,14.90
2022-08-21T18:20:10.027Z,2.77
2022-08-21T18:22:37.629Z,3.87
2022-08-21T18:25:06.462Z,3.60
2022-08-21T18:27:34.089Z,5.73
2022-08-21T18:30:02.010Z,6.77
2022-08-21T18:32:32.249Z,6.07
2022-08-21T18:35:01.231Z,3.30
2022-08-21T18:37:29.214Z,3.70
2022-08-21T18:39:56.963Z,6.57
2022-08-21T18:42:29.130Z,3.73
2022-08-21T18:45:01.237Z,5.90
2022-08-21T18:47:37.366Z,5.57
2022-08-21T18:50:06.223Z,8.40
2022-08-21T18:52:38.960Z,4.73
2022-08-21T18:55:14.807Z,5.37
2022-08-21T18:57:45.841Z,5.07
2022-08-21T19:00:18.402Z,4.57
2022-08-21T19:02:47.396Z,3.20
2022-08-21T19:05:17.431Z,6.13
2022-08-21T19:07:45.400Z,4.67
2022-08-21T19:10:27.384Z,6.23
2022-08-21T19:12:57.275Z,5.43
2022-08-21T19:15:25.609Z,3.17
2022-08-21T19:17:55.736Z,4.03
2022-08-21T19:20:27.135Z,4.23
2022-08-21T19:22:56.856Z,2.50
2022-08-21T19:28:23.187Z,4.63
2022-08-21T19:30:55.843Z,4.80
2022-08-21T19:33:33.636Z,3.07
2022-08-21T19:36:02.157Z,12.83
2022-08-21T19:38:30.011Z,5.90
2022-08-21T19:41:00.144Z,7.67
2022-08-21T19:43:29.237Z,8.73
2022-08-21T19:45:58.583Z,3.10
2022-08-21T19:48:28.186Z,8.83
2022-08-21T19:50:56.047Z,4.27
2022-08-21T19:53:23.856Z,4.83
2022-08-21T19:55:51.539Z,7.70
2022-08-21T19:58:29.320Z,4.17
2022-08-21T20:00:56.940Z,2.00
2022-08-21T20:03:24.725Z,7.60
2022-08-21T20:05:54.230Z,7.10
2022-08-21T20:11:14.684Z,3.10
2022-08-21T20:13:43.694Z,7.10
2022-08-21T20:16:14.429Z,4.70
2022-08-21T20:18:42.480Z,6.97
2022-08-21T20:21:13.264Z,6.57
2022-08-21T20:23:48.723Z,4.47
2022-08-21T20:26:18.352Z,10.20
2022-08-21T20:28:50.266Z,4.57
2022-08-21T20:31:19.672Z,4.87
2022-08-21T20:36:37.111Z,4.00
2022-08-21T20:39:07.980Z,4.57
2022-08-21T20:41:39.030Z,5.23
2022-08-21T20:44:09.649Z,7.23
2022-08-21T20:46:40.839Z,3.73
2022-08-21T20:49:09.369Z,4.30
2022-08-21T20:51:41.008Z,6.73
2022-08-21T20:54:19.605Z,5.63
2022-08-21T20:56:50.832Z,3.83
2022-08-21T20:59:26.814Z,5.70
2022-08-21T21:01:59.560Z,5.40
2022-08-21T21:04:36.096Z,3.13
2022-08-21T21:09:58.181Z,3.23
2022-08-21T21:12:29.425Z,3.40
2022-08-21T21:15:00.129Z,4.83
2022-08-21T21:17:32.019Z,4.93
2022-08-21T21:20:06.004Z,5.27
2022-08-21T21:22:38.437Z,6.33
2022-08-21T21:25:11.943Z,6.80
2022-08-21T21:27:42.666Z,6.87
2022-08-21T21:30:20.996Z,8.43
2022-08-21T21:32:48.870Z,6.67
2022-08-21T21:35:32.511Z,5.10
2022-08-21T21:38:12.590Z,10.07
2022-08-21T21:40:48.616Z,6.77
2022-08-21T21:43:22.403Z,3.77
2022-08-21T21:46:03.581Z,20.03
2022-08-21T21:48:39.346Z,4.33
2022-08-21T21:51:14.980Z,7.67
2022-08-21T21:53:51.672Z,6.60
2022-08-21T21:59:24.077Z,7.23
2022-08-21T22:01:57.565Z,7.07
2022-08-21T22:04:51.143Z,7.33
2022-08-21T22:07:25.961Z,7.37
2022-08-21T22:10:05.577Z,5.00
2022-08-21T22:12:55.128Z,6.77
2022-08-21T22:15:26.341Z,6.13
2022-08-21T22:18:00.586Z,5.07
2022-08-21T22:20:33.803Z,6.07
2022-08-21T22:23:05.030Z,6.47
2022-08-21T22:25:37.850Z,7.47
2022-08-21T22:28:07.998Z,7.23
2022-08-21T22:30:40.731Z,5.87
2022-08-21T22:33:14.670Z,4.40
2022-08-21T22:35:42.832Z,6.07
2022-08-21T22:38:30.640Z,4.90
2022-08-21T22:41:14.114Z,7.87
2022-08-21T22:43:52.946Z,6.93
2022-08-21T22:46:26.738Z,7.70
2022-08-21T22:48:58.977Z,8.30
2022-08-21T22:51:33.632Z,7.20
2022-08-21T22:54:02.314Z,9.13
2022-08-21T22:56:34.154Z,4.33
2022-08-21T22:59:04.941Z,3.77
2022-08-21T23:01:41.224Z,8.13
2022-08-21T23:04:20.815Z,7.03
2022-08-21T23:06:52.694Z,5.93
2022-08-21T23:09:30.376Z,9.13
2022-08-21T23:12:01.936Z,7.67
2022-08-21T23:14:54.552Z,8.03
2022-08-21T23:17:39.692Z,9.63
2022-08-21T23:20:11.661Z,5.00
2022-08-21T23:22:49.911Z,4.40
2022-08-21T23:25:36.357Z,7.37
2022-08-21T23:28:10.246Z,6.50
2022-08-21T23:30:44.413Z,6.57
2022-08-21T23:33:30.122Z,8.00
2022-08-21T23:36:22.745Z,11.83
2022-08-21T23:39:05.335Z,3.63
2022-08-21T23:41:40.556Z,2.77
2022-08-21T23:44:25.062Z,4.83
2022-08-21T23:47:03.433Z,4.30
2022-08-21T23:49:44.289Z,6.30
2022-08-21T23:52:18.828Z,7.40
2022-08-21T23:54:57.799Z,4.47
2022-08-21T23:57:45.578Z,5.00
